This is the latest recevied weather packets stored in our database for station/object LEBL. If no packets are shown the sender has not sent any weather packets the latest 10 day(s).
| Time | Temp. | Humidity | Pressure | Rain* | Wind** | Luminosity | Snow |
|---|---|---|---|---|---|---|---|
| 1778269504 | 17.78° C | 72% | 1014 hPa | - | - | - | - |
| 1778266803 | 18.89° C | 68% | 1014 hPa | - | - | - | - |
| 1778265904 | 18.89° C | 68% | 1014 hPa | - | - | - | - |
| 1778265005 | 17.78° C | 77% | 1014 hPa | - | - | - | - |
| 1778264104 | 17.78° C | 77% | 1014 hPa | - | - | - | - |
| 1778263204 | 18.89° C | 72% | 1014 hPa | - | - | - | - |
| 1778260504 | 18.89° C | 72% | 1014 hPa | - | - | - | - |
| 1778258704 | 18.89° C | 68% | 1013 hPa | - | - | - | - |
| 1778255103 | 18.89° C | 72% | 1014 hPa | - | - | - | - |
| 1778250605 | 20° C | 72% | 1014 hPa | - | - | - | - |
| 1778249704 | 20° C | 72% | 1014 hPa | - | - | - | - |
| 1778248804 | 17.78° C | 77% | 1014 hPa | - | - | - | - |
| 1778244304 | 18.89° C | 68% | 1015 hPa | - | - | - | - |
| 1778240703 | 18.89° C | 63% | 1014 hPa | - | - | - | - |
| 1778238903 | 18.89° C | 68% | 1014 hPa | - | - | - | - |
| 1778238005 | 18.89° C | 68% | 1015 hPa | - | - | - | - |
| 1778236205 | 20° C | 64% | 1015 hPa | - | - | - | - |
| 1778233504 | 18.89° C | 63% | 1015 hPa | - | - | - | - |
| 1778229004 | 17.22° C | 63% | 1013 hPa | - | - | - | - |
| 1778226304 | 16.11° C | 67% | 1013 hPa | - | - | - | - |
| 1778225404 | 13.89° C | 76% | 1013 hPa | - | - | - | - |
| 1778224504 | 13.89° C | 76% | 1013 hPa | - | - | - | - |
| 1778223605 | 13.89° C | 76% | 1013 hPa | - | - | - | - |
| 1778222703 | 13.89° C | 76% | 1013 hPa | - | - | - | - |
| 1778220004 | 12.78° C | 82% | 1013 hPa | - | - | - | - |
* Rain since midnight (hover to see other rain measurements)
** Current wind speed in m/s (hover to see current wind gust speed)